首页
METAR-TAF:

METAR-TAF

机场 :

阿薩盧耶, 伊朗

纬度: 27-22-46N, 经度: 52-44-15E, 海拔: 8米

当前天气观测

该预报发布于37分钟前的12:00 UTC
风速10节,风向南转西南
温度 38°C
湿度 57%
气压 1002 hPa
能見度: 6000
少量云层高于2000英尺

METAR: OIBP 191200Z 21010KT 6000 FEW020 38/28 Q1001 A2958

时间: 17:07 (12:37 UTC)


TAF: 丢失

超过4000个机场的气象观测和天气预报(METAR&TAF报告)。

可查询的气象台以黄色和红色小点在地图上表示。

将鼠标移到小点上方,可查看气象台名称。

然后点击查看天气观测和预报。

如需切换地图:点击带黑十字的绿色按钮放大地图;点击带横线的绿色按钮缩小地图;或者点击绿色箭头查看邻近地区的地图。


METAR-TAF: